sensor_id;sensor_type;location;lat;lon;timestamp;P1;durP1;ratioP1;P2;durP2;ratioP2
73575;SDS011;61859;49.204;8.140;2024-01-30T00:01:04;18.17;;;11.03;;
73575;SDS011;61859;49.204;8.140;2024-01-30T00:03:30;18.37;;;10.67;;
73575;SDS011;61859;49.204;8.140;2024-01-30T00:05:56;18.77;;;10.40;;
73575;SDS011;61859;49.204;8.140;2024-01-30T00:08:21;17.07;;;10.50;;
73575;SDS011;61859;49.204;8.140;2024-01-30T00:10:47;20.83;;;11.53;;
73575;SDS011;61859;49.204;8.140;2024-01-30T00:13:12;16.00;;;10.27;;
73575;SDS011;61859;49.204;8.140;2024-01-30T00:15:39;14.70;;;10.00;;
73575;SDS011;61859;49.204;8.140;2024-01-30T00:18:04;15.17;;;10.27;;
73575;SDS011;61859;49.204;8.140;2024-01-30T00:20:30;14.40;;;9.50;;
73575;SDS011;61859;49.204;8.140;2024-01-30T00:22:55;14.60;;;9.70;;
73575;SDS011;61859;49.204;8.140;2024-01-30T00:25:21;12.83;;;8.70;;
73575;SDS011;61859;49.204;8.140;2024-01-30T00:27:46;13.53;;;8.77;;
73575;SDS011;61859;49.204;8.140;2024-01-30T00:30:12;12.23;;;9.03;;
73575;SDS011;61859;49.204;8.140;2024-01-30T00:32:38;15.77;;;9.40;;
73575;SDS011;61859;49.204;8.140;2024-01-30T00:35:03;11.73;;;8.17;;
73575;SDS011;61859;49.204;8.140;2024-01-30T00:37:29;13.10;;;9.20;;
73575;SDS011;61859;49.204;8.140;2024-01-30T00:39:56;12.17;;;8.67;;
73575;SDS011;61859;49.204;8.140;2024-01-30T00:42:22;12.20;;;8.37;;
73575;SDS011;61859;49.204;8.140;2024-01-30T00:44:48;13.17;;;9.10;;
73575;SDS011;61859;49.204;8.140;2024-01-30T00:47:14;13.73;;;8.87;;
73575;SDS011;61859;49.204;8.140;2024-01-30T00:49:40;12.13;;;8.03;;
73575;SDS011;61859;49.204;8.140;2024-01-30T00:52:05;12.43;;;8.27;;
73575;SDS011;61859;49.204;8.140;2024-01-30T00:54:31;15.83;;;9.10;;
73575;SDS011;61859;49.204;8.140;2024-01-30T00:56:56;12.73;;;9.10;;
73575;SDS011;61859;49.204;8.140;2024-01-30T00:59:22;13.07;;;8.63;;
73575;SDS011;61859;49.204;8.140;2024-01-30T01:01:47;11.47;;;8.70;;
73575;SDS011;61859;49.204;8.140;2024-01-30T01:04:13;14.23;;;8.90;;
73575;SDS011;61859;49.204;8.140;2024-01-30T01:06:39;13.80;;;9.50;;
73575;SDS011;61859;49.204;8.140;2024-01-30T01:09:07;15.10;;;8.97;;
73575;SDS011;61859;49.204;8.140;2024-01-30T01:11:33;14.30;;;8.90;;
73575;SDS011;61859;49.204;8.140;2024-01-30T01:13:58;16.23;;;9.30;;
73575;SDS011;61859;49.204;8.140;2024-01-30T01:16:24;12.93;;;9.27;;
73575;SDS011;61859;49.204;8.140;2024-01-30T01:18:49;13.40;;;8.33;;
73575;SDS011;61859;49.204;8.140;2024-01-30T01:21:15;12.50;;;8.57;;
73575;SDS011;61859;49.204;8.140;2024-01-30T01:23:40;12.87;;;9.07;;
73575;SDS011;61859;49.204;8.140;2024-01-30T01:26:07;13.17;;;8.50;;
73575;SDS011;61859;49.204;8.140;2024-01-30T01:28:34;10.90;;;8.07;;
73575;SDS011;61859;49.204;8.140;2024-01-30T01:31:00;13.63;;;9.20;;
73575;SDS011;61859;49.204;8.140;2024-01-30T01:33:30;12.80;;;9.13;;
73575;SDS011;61859;49.204;8.140;2024-01-30T01:35:59;12.43;;;9.07;;
73575;SDS011;61859;49.204;8.140;2024-01-30T01:38:27;13.30;;;9.23;;
73575;SDS011;61859;49.204;8.140;2024-01-30T01:40:53;11.93;;;8.17;;
73575;SDS011;61859;49.204;8.140;2024-01-30T01:43:18;14.17;;;8.40;;
73575;SDS011;61859;49.204;8.140;2024-01-30T01:45:44;11.43;;;8.50;;
73575;SDS011;61859;49.204;8.140;2024-01-30T01:48:10;13.20;;;9.07;;
73575;SDS011;61859;49.204;8.140;2024-01-30T01:50:36;14.43;;;8.97;;
73575;SDS011;61859;49.204;8.140;2024-01-30T01:53:02;16.13;;;9.00;;
73575;SDS011;61859;49.204;8.140;2024-01-30T01:55:28;14.57;;;9.17;;
73575;SDS011;61859;49.204;8.140;2024-01-30T01:57:55;10.77;;;8.07;;
73575;SDS011;61859;49.204;8.140;2024-01-30T02:00:21;15.73;;;8.83;;
73575;SDS011;61859;49.204;8.140;2024-01-30T02:02:48;12.97;;;8.63;;
73575;SDS011;61859;49.204;8.140;2024-01-30T02:05:15;12.63;;;9.37;;
73575;SDS011;61859;49.204;8.140;2024-01-30T02:07:41;12.83;;;8.43;;
73575;SDS011;61859;49.204;8.140;2024-01-30T02:10:08;15.03;;;9.00;;
73575;SDS011;61859;49.204;8.140;2024-01-30T02:12:35;12.67;;;9.07;;
73575;SDS011;61859;49.204;8.140;2024-01-30T02:15:00;11.63;;;9.07;;
73575;SDS011;61859;49.204;8.140;2024-01-30T02:17:26;12.43;;;8.40;;
73575;SDS011;61859;49.204;8.140;2024-01-30T02:19:52;13.23;;;8.80;;
73575;SDS011;61859;49.204;8.140;2024-01-30T02:22:17;11.77;;;8.20;;
73575;SDS011;61859;49.204;8.140;2024-01-30T02:24:44;12.33;;;8.40;;
73575;SDS011;61859;49.204;8.140;2024-01-30T02:27:09;14.43;;;8.83;;
73575;SDS011;61859;49.204;8.140;2024-01-30T02:29:35;14.50;;;8.67;;
73575;SDS011;61859;49.204;8.140;2024-01-30T02:32:01;13.00;;;8.13;;
73575;SDS011;61859;49.204;8.140;2024-01-30T02:34:27;13.93;;;8.83;;
73575;SDS011;61859;49.204;8.140;2024-01-30T02:36:52;12.67;;;8.87;;
73575;SDS011;61859;49.204;8.140;2024-01-30T02:39:18;12.53;;;8.23;;
73575;SDS011;61859;49.204;8.140;2024-01-30T02:41:43;13.97;;;9.00;;
73575;SDS011;61859;49.204;8.140;2024-01-30T02:44:09;12.90;;;9.20;;
73575;SDS011;61859;49.204;8.140;2024-01-30T02:46:34;14.83;;;9.43;;
73575;SDS011;61859;49.204;8.140;2024-01-30T02:49:00;14.43;;;9.50;;
73575;SDS011;61859;49.204;8.140;2024-01-30T02:51:25;14.83;;;9.70;;
73575;SDS011;61859;49.204;8.140;2024-01-30T02:53:51;13.47;;;9.20;;
73575;SDS011;61859;49.204;8.140;2024-01-30T02:56:16;12.17;;;8.93;;
73575;SDS011;61859;49.204;8.140;2024-01-30T02:58:42;11.47;;;8.57;;
73575;SDS011;61859;49.204;8.140;2024-01-30T03:01:07;15.00;;;9.30;;
73575;SDS011;61859;49.204;8.140;2024-01-30T03:03:33;13.83;;;9.13;;
73575;SDS011;61859;49.204;8.140;2024-01-30T03:06:02;15.30;;;10.33;;
73575;SDS011;61859;49.204;8.140;2024-01-30T03:08:28;13.70;;;9.03;;
73575;SDS011;61859;49.204;8.140;2024-01-30T03:10:53;14.93;;;9.40;;
73575;SDS011;61859;49.204;8.140;2024-01-30T03:13:19;12.50;;;9.00;;
73575;SDS011;61859;49.204;8.140;2024-01-30T03:15:44;14.03;;;9.27;;
73575;SDS011;61859;49.204;8.140;2024-01-30T03:18:10;13.97;;;9.47;;
73575;SDS011;61859;49.204;8.140;2024-01-30T03:20:35;13.00;;;9.47;;
73575;SDS011;61859;49.204;8.140;2024-01-30T03:23:01;15.13;;;9.93;;
73575;SDS011;61859;49.204;8.140;2024-01-30T03:25:27;14.67;;;10.17;;
73575;SDS011;61859;49.204;8.140;2024-01-30T03:27:52;13.80;;;9.53;;
73575;SDS011;61859;49.204;8.140;2024-01-30T03:30:18;13.40;;;9.03;;
73575;SDS011;61859;49.204;8.140;2024-01-30T03:32:43;13.53;;;9.43;;
73575;SDS011;61859;49.204;8.140;2024-01-30T03:35:09;12.90;;;8.67;;
73575;SDS011;61859;49.204;8.140;2024-01-30T03:37:35;12.07;;;8.73;;
73575;SDS011;61859;49.204;8.140;2024-01-30T03:40:01;14.17;;;8.77;;
73575;SDS011;61859;49.204;8.140;2024-01-30T03:42:28;11.87;;;8.73;;
73575;SDS011;61859;49.204;8.140;2024-01-30T03:44:53;12.13;;;8.90;;
73575;SDS011;61859;49.204;8.140;2024-01-30T03:47:20;15.87;;;9.13;;
73575;SDS011;61859;49.204;8.140;2024-01-30T03:49:46;13.80;;;9.07;;
73575;SDS011;61859;49.204;8.140;2024-01-30T03:52:12;13.13;;;9.37;;
73575;SDS011;61859;49.204;8.140;2024-01-30T03:54:37;15.27;;;10.10;;
73575;SDS011;61859;49.204;8.140;2024-01-30T03:57:03;14.53;;;10.00;;
73575;SDS011;61859;49.204;8.140;2024-01-30T03:59:29;12.53;;;10.27;;
73575;SDS011;61859;49.204;8.140;2024-01-30T04:01:54;16.23;;;9.70;;
73575;SDS011;61859;49.204;8.140;2024-01-30T04:04:20;14.83;;;9.87;;
73575;SDS011;61859;49.204;8.140;2024-01-30T04:06:46;14.63;;;10.37;;
73575;SDS011;61859;49.204;8.140;2024-01-30T04:09:12;16.93;;;10.97;;
73575;SDS011;61859;49.204;8.140;2024-01-30T04:11:38;18.07;;;11.23;;
73575;SDS011;61859;49.204;8.140;2024-01-30T04:14:04;17.57;;;10.70;;
73575;SDS011;61859;49.204;8.140;2024-01-30T04:16:30;17.50;;;10.63;;
73575;SDS011;61859;49.204;8.140;2024-01-30T04:18:56;15.50;;;10.23;;
73575;SDS011;61859;49.204;8.140;2024-01-30T04:21:21;17.77;;;10.73;;
73575;SDS011;61859;49.204;8.140;2024-01-30T04:23:47;16.30;;;9.70;;
73575;SDS011;61859;49.204;8.140;2024-01-30T04:26:13;14.03;;;10.67;;
73575;SDS011;61859;49.204;8.140;2024-01-30T04:28:41;17.53;;;11.77;;
73575;SDS011;61859;49.204;8.140;2024-01-30T04:31:07;17.23;;;11.37;;
73575;SDS011;61859;49.204;8.140;2024-01-30T04:33:32;15.90;;;10.87;;
73575;SDS011;61859;49.204;8.140;2024-01-30T04:35:58;15.83;;;11.00;;
73575;SDS011;61859;49.204;8.140;2024-01-30T04:38:23;17.70;;;12.10;;
73575;SDS011;61859;49.204;8.140;2024-01-30T04:40:49;17.77;;;11.70;;
73575;SDS011;61859;49.204;8.140;2024-01-30T04:43:14;14.90;;;10.90;;
73575;SDS011;61859;49.204;8.140;2024-01-30T04:45:40;16.77;;;11.27;;
73575;SDS011;61859;49.204;8.140;2024-01-30T04:48:07;19.87;;;11.37;;
73575;SDS011;61859;49.204;8.140;2024-01-30T04:50:32;15.97;;;10.83;;
73575;SDS011;61859;49.204;8.140;2024-01-30T04:52:58;13.63;;;10.83;;
73575;SDS011;61859;49.204;8.140;2024-01-30T04:55:23;20.50;;;12.37;;
73575;SDS011;61859;49.204;8.140;2024-01-30T04:57:49;17.27;;;11.43;;
73575;SDS011;61859;49.204;8.140;2024-01-30T05:00:15;16.40;;;11.70;;
73575;SDS011;61859;49.204;8.140;2024-01-30T05:02:41;16.17;;;10.90;;
73575;SDS011;61859;49.204;8.140;2024-01-30T05:05:06;19.23;;;11.40;;
73575;SDS011;61859;49.204;8.140;2024-01-30T05:07:32;16.23;;;11.47;;
73575;SDS011;61859;49.204;8.140;2024-01-30T05:09:58;15.93;;;10.90;;
73575;SDS011;61859;49.204;8.140;2024-01-30T05:12:24;15.60;;;11.07;;
73575;SDS011;61859;49.204;8.140;2024-01-30T05:14:49;17.90;;;11.87;;
73575;SDS011;61859;49.204;8.140;2024-01-30T05:17:15;16.83;;;11.10;;
73575;SDS011;61859;49.204;8.140;2024-01-30T05:19:40;13.53;;;10.03;;
73575;SDS011;61859;49.204;8.140;2024-01-30T05:22:07;16.30;;;11.07;;
73575;SDS011;61859;49.204;8.140;2024-01-30T05:24:33;16.07;;;10.70;;
73575;SDS011;61859;49.204;8.140;2024-01-30T05:26:58;18.43;;;11.50;;
73575;SDS011;61859;49.204;8.140;2024-01-30T05:29:24;14.70;;;9.97;;
73575;SDS011;61859;49.204;8.140;2024-01-30T05:31:49;17.03;;;11.10;;
73575;SDS011;61859;49.204;8.140;2024-01-30T05:34:15;16.90;;;11.20;;
73575;SDS011;61859;49.204;8.140;2024-01-30T05:36:41;20.27;;;11.50;;
73575;SDS011;61859;49.204;8.140;2024-01-30T05:39:06;13.80;;;10.27;;
73575;SDS011;61859;49.204;8.140;2024-01-30T05:41:32;16.17;;;11.00;;
73575;SDS011;61859;49.204;8.140;2024-01-30T05:43:58;18.70;;;11.60;;
73575;SDS011;61859;49.204;8.140;2024-01-30T05:46:23;16.37;;;10.47;;
73575;SDS011;61859;49.204;8.140;2024-01-30T05:48:49;16.07;;;11.77;;
73575;SDS011;61859;49.204;8.140;2024-01-30T05:51:14;18.67;;;11.87;;
73575;SDS011;61859;49.204;8.140;2024-01-30T05:53:40;17.53;;;11.60;;
73575;SDS011;61859;49.204;8.140;2024-01-30T05:56:06;16.50;;;11.80;;
73575;SDS011;61859;49.204;8.140;2024-01-30T05:58:31;19.37;;;12.27;;
73575;SDS011;61859;49.204;8.140;2024-01-30T06:00:57;23.80;;;12.27;;
73575;SDS011;61859;49.204;8.140;2024-01-30T06:03:23;17.83;;;12.00;;
73575;SDS011;61859;49.204;8.140;2024-01-30T06:05:48;18.40;;;12.70;;
73575;SDS011;61859;49.204;8.140;2024-01-30T06:08:14;19.63;;;12.83;;
73575;SDS011;61859;49.204;8.140;2024-01-30T06:10:39;18.50;;;12.23;;
73575;SDS011;61859;49.204;8.140;2024-01-30T06:13:05;23.60;;;13.30;;
73575;SDS011;61859;49.204;8.140;2024-01-30T06:15:31;20.67;;;12.87;;
73575;SDS011;61859;49.204;8.140;2024-01-30T06:17:57;20.10;;;12.87;;
73575;SDS011;61859;49.204;8.140;2024-01-30T06:20:24;22.23;;;13.67;;
73575;SDS011;61859;49.204;8.140;2024-01-30T06:22:49;21.30;;;12.73;;
73575;SDS011;61859;49.204;8.140;2024-01-30T06:25:15;18.13;;;12.43;;
73575;SDS011;61859;49.204;8.140;2024-01-30T06:27:41;17.50;;;11.33;;
73575;SDS011;61859;49.204;8.140;2024-01-30T06:30:07;17.43;;;11.67;;
73575;SDS011;61859;49.204;8.140;2024-01-30T06:32:35;17.53;;;12.33;;
73575;SDS011;61859;49.204;8.140;2024-01-30T06:35:01;17.03;;;11.33;;
73575;SDS011;61859;49.204;8.140;2024-01-30T06:37:27;18.27;;;12.07;;
73575;SDS011;61859;49.204;8.140;2024-01-30T06:39:53;16.00;;;11.73;;
73575;SDS011;61859;49.204;8.140;2024-01-30T06:42:19;18.03;;;11.93;;
73575;SDS011;61859;49.204;8.140;2024-01-30T06:44:44;20.43;;;11.40;;
73575;SDS011;61859;49.204;8.140;2024-01-30T06:47:10;19.47;;;13.10;;
73575;SDS011;61859;49.204;8.140;2024-01-30T06:49:36;19.37;;;12.10;;
73575;SDS011;61859;49.204;8.140;2024-01-30T06:52:07;20.77;;;12.83;;
73575;SDS011;61859;49.204;8.140;2024-01-30T06:54:33;20.00;;;12.43;;
73575;SDS011;61859;49.204;8.140;2024-01-30T06:56:59;20.93;;;12.70;;
73575;SDS011;61859;49.204;8.140;2024-01-30T06:59:25;21.00;;;12.93;;
73575;SDS011;61859;49.204;8.140;2024-01-30T07:01:50;18.53;;;11.37;;
73575;SDS011;61859;49.204;8.140;2024-01-30T07:04:16;16.60;;;11.13;;
73575;SDS011;61859;49.204;8.140;2024-01-30T07:06:43;17.27;;;12.13;;
73575;SDS011;61859;49.204;8.140;2024-01-30T07:09:08;17.83;;;11.87;;
73575;SDS011;61859;49.204;8.140;2024-01-30T07:11:34;20.83;;;12.20;;
73575;SDS011;61859;49.204;8.140;2024-01-30T07:13:59;18.20;;;12.30;;
73575;SDS011;61859;49.204;8.140;2024-01-30T07:16:25;17.83;;;11.10;;
73575;SDS011;61859;49.204;8.140;2024-01-30T07:18:51;22.57;;;13.57;;
73575;SDS011;61859;49.204;8.140;2024-01-30T07:21:16;24.40;;;15.37;;
73575;SDS011;61859;49.204;8.140;2024-01-30T07:23:42;21.23;;;11.93;;
73575;SDS011;61859;49.204;8.140;2024-01-30T07:26:08;17.27;;;11.07;;
73575;SDS011;61859;49.204;8.140;2024-01-30T07:28:34;16.33;;;10.70;;
73575;SDS011;61859;49.204;8.140;2024-01-30T07:31:00;14.97;;;10.83;;
73575;SDS011;61859;49.204;8.140;2024-01-30T07:33:26;15.67;;;10.00;;
73575;SDS011;61859;49.204;8.140;2024-01-30T07:35:52;11.60;;;9.33;;
73575;SDS011;61859;49.204;8.140;2024-01-30T07:38:18;16.10;;;10.53;;
73575;SDS011;61859;49.204;8.140;2024-01-30T07:40:44;13.60;;;9.53;;
73575;SDS011;61859;49.204;8.140;2024-01-30T07:43:10;16.00;;;10.17;;
73575;SDS011;61859;49.204;8.140;2024-01-30T07:45:36;11.90;;;8.83;;
73575;SDS011;61859;49.204;8.140;2024-01-30T07:48:03;14.47;;;10.40;;
73575;SDS011;61859;49.204;8.140;2024-01-30T07:50:30;14.70;;;9.37;;
73575;SDS011;61859;49.204;8.140;2024-01-30T07:52:59;12.63;;;8.80;;
73575;SDS011;61859;49.204;8.140;2024-01-30T07:55:25;13.47;;;8.23;;
73575;SDS011;61859;49.204;8.140;2024-01-30T07:57:54;11.70;;;8.30;;
73575;SDS011;61859;49.204;8.140;2024-01-30T08:00:22;12.47;;;8.73;;
73575;SDS011;61859;49.204;8.140;2024-01-30T08:02:48;11.83;;;9.03;;
73575;SDS011;61859;49.204;8.140;2024-01-30T08:05:13;12.33;;;7.90;;
73575;SDS011;61859;49.204;8.140;2024-01-30T08:07:40;9.50;;;7.40;;
73575;SDS011;61859;49.204;8.140;2024-01-30T08:10:07;11.83;;;7.77;;
73575;SDS011;61859;49.204;8.140;2024-01-30T08:12:33;10.90;;;7.70;;
73575;SDS011;61859;49.204;8.140;2024-01-30T08:14:59;10.83;;;6.17;;
73575;SDS011;61859;49.204;8.140;2024-01-30T08:17:24;11.27;;;7.30;;
73575;SDS011;61859;49.204;8.140;2024-01-30T08:19:50;13.43;;;6.53;;
73575;SDS011;61859;49.204;8.140;2024-01-30T08:22:15;11.30;;;6.47;;
73575;SDS011;61859;49.204;8.140;2024-01-30T08:24:41;9.63;;;5.90;;
73575;SDS011;61859;49.204;8.140;2024-01-30T08:27:06;9.73;;;5.93;;
73575;SDS011;61859;49.204;8.140;2024-01-30T08:29:35;25.13;;;14.67;;
73575;SDS011;61859;49.204;8.140;2024-01-30T08:32:00;23.70;;;13.30;;
73575;SDS011;61859;49.204;8.140;2024-01-30T08:34:26;18.33;;;9.67;;
73575;SDS011;61859;49.204;8.140;2024-01-30T08:36:52;16.90;;;9.73;;
73575;SDS011;61859;49.204;8.140;2024-01-30T08:39:18;11.47;;;7.40;;
73575;SDS011;61859;49.204;8.140;2024-01-30T08:41:43;10.30;;;6.67;;
73575;SDS011;61859;49.204;8.140;2024-01-30T08:44:09;10.97;;;7.17;;
73575;SDS011;61859;49.204;8.140;2024-01-30T08:46:36;10.90;;;7.40;;
73575;SDS011;61859;49.204;8.140;2024-01-30T08:49:01;14.20;;;10.23;;
73575;SDS011;61859;49.204;8.140;2024-01-30T08:51:29;14.03;;;9.23;;
73575;SDS011;61859;49.204;8.140;2024-01-30T08:53:54;12.63;;;7.33;;
73575;SDS011;61859;49.204;8.140;2024-01-30T08:56:20;11.50;;;6.83;;
73575;SDS011;61859;49.204;8.140;2024-01-30T08:58:46;8.87;;;5.77;;
73575;SDS011;61859;49.204;8.140;2024-01-30T09:01:11;8.40;;;5.63;;
73575;SDS011;61859;49.204;8.140;2024-01-30T09:03:37;11.33;;;6.50;;
73575;SDS011;61859;49.204;8.140;2024-01-30T09:06:08;10.23;;;6.80;;
73575;SDS011;61859;49.204;8.140;2024-01-30T09:08:33;9.67;;;6.43;;
73575;SDS011;61859;49.204;8.140;2024-01-30T09:10:59;8.50;;;5.77;;
73575;SDS011;61859;49.204;8.140;2024-01-30T09:13:24;10.07;;;6.30;;
73575;SDS011;61859;49.204;8.140;2024-01-30T09:15:50;12.43;;;7.23;;
73575;SDS011;61859;49.204;8.140;2024-01-30T09:18:16;9.90;;;7.20;;
73575;SDS011;61859;49.204;8.140;2024-01-30T09:20:41;12.97;;;8.63;;
73575;SDS011;61859;49.204;8.140;2024-01-30T09:23:07;12.27;;;8.30;;
73575;SDS011;61859;49.204;8.140;2024-01-30T09:25:33;11.07;;;8.57;;
73575;SDS011;61859;49.204;8.140;2024-01-30T09:27:59;12.00;;;8.87;;
73575;SDS011;61859;49.204;8.140;2024-01-30T09:30:24;13.13;;;8.33;;
73575;SDS011;61859;49.204;8.140;2024-01-30T09:32:50;12.97;;;8.93;;
73575;SDS011;61859;49.204;8.140;2024-01-30T09:35:15;12.10;;;8.67;;
73575;SDS011;61859;49.204;8.140;2024-01-30T09:37:41;12.87;;;9.07;;
73575;SDS011;61859;49.204;8.140;2024-01-30T09:40:07;13.57;;;8.77;;
73575;SDS011;61859;49.204;8.140;2024-01-30T09:42:33;10.87;;;8.50;;
73575;SDS011;61859;49.204;8.140;2024-01-30T09:45:01;12.33;;;8.87;;
73575;SDS011;61859;49.204;8.140;2024-01-30T09:47:30;13.00;;;8.80;;
73575;SDS011;61859;49.204;8.140;2024-01-30T09:50:05;10.57;;;8.47;;
73575;SDS011;61859;49.204;8.140;2024-01-30T09:52:31;12.40;;;8.40;;
73575;SDS011;61859;49.204;8.140;2024-01-30T09:54:58;10.57;;;8.53;;
73575;SDS011;61859;49.204;8.140;2024-01-30T09:57:25;10.80;;;7.87;;
73575;SDS011;61859;49.204;8.140;2024-01-30T09:59:51;11.20;;;8.17;;
73575;SDS011;61859;49.204;8.140;2024-01-30T10:02:19;10.47;;;7.77;;
73575;SDS011;61859;49.204;8.140;2024-01-30T10:04:51;12.03;;;8.67;;
73575;SDS011;61859;49.204;8.140;2024-01-30T10:07:17;13.77;;;8.70;;
73575;SDS011;61859;49.204;8.140;2024-01-30T10:09:43;13.50;;;8.67;;
73575;SDS011;61859;49.204;8.140;2024-01-30T10:12:09;12.97;;;8.43;;
73575;SDS011;61859;49.204;8.140;2024-01-30T10:14:41;12.47;;;8.50;;
73575;SDS011;61859;49.204;8.140;2024-01-30T10:17:11;13.70;;;8.43;;
73575;SDS011;61859;49.204;8.140;2024-01-30T10:19:38;12.20;;;8.53;;
73575;SDS011;61859;49.204;8.140;2024-01-30T10:22:04;11.70;;;8.60;;
73575;SDS011;61859;49.204;8.140;2024-01-30T10:24:30;10.40;;;8.33;;
73575;SDS011;61859;49.204;8.140;2024-01-30T10:26:56;15.60;;;9.00;;
73575;SDS011;61859;49.204;8.140;2024-01-30T10:29:21;12.03;;;9.40;;
73575;SDS011;61859;49.204;8.140;2024-01-30T10:32:00;12.67;;;9.07;;
73575;SDS011;61859;49.204;8.140;2024-01-30T10:34:27;15.60;;;9.13;;
73575;SDS011;61859;49.204;8.140;2024-01-30T10:37:00;10.93;;;8.97;;
73575;SDS011;61859;49.204;8.140;2024-01-30T10:39:31;13.83;;;9.40;;
73575;SDS011;61859;49.204;8.140;2024-01-30T10:42:03;10.90;;;8.63;;
73575;SDS011;61859;49.204;8.140;2024-01-30T10:44:33;11.23;;;9.03;;
73575;SDS011;61859;49.204;8.140;2024-01-30T10:47:06;13.10;;;8.97;;
73575;SDS011;61859;49.204;8.140;2024-01-30T10:49:34;11.10;;;8.97;;
73575;SDS011;61859;49.204;8.140;2024-01-30T10:52:01;12.93;;;8.53;;
73575;SDS011;61859;49.204;8.140;2024-01-30T10:54:28;11.97;;;8.43;;
73575;SDS011;61859;49.204;8.140;2024-01-30T10:56:55;11.83;;;7.67;;
73575;SDS011;61859;49.204;8.140;2024-01-30T10:59:23;9.57;;;6.83;;
73575;SDS011;61859;49.204;8.140;2024-01-30T11:01:49;9.37;;;6.67;;
73575;SDS011;61859;49.204;8.140;2024-01-30T11:04:16;7.93;;;6.33;;
73575;SDS011;61859;49.204;8.140;2024-01-30T11:06:41;7.90;;;5.97;;
73575;SDS011;61859;49.204;8.140;2024-01-30T11:09:11;8.33;;;5.67;;
73575;SDS011;61859;49.204;8.140;2024-01-30T11:11:50;7.83;;;5.90;;
73575;SDS011;61859;49.204;8.140;2024-01-30T11:14:26;9.97;;;5.50;;
73575;SDS011;61859;49.204;8.140;2024-01-30T11:16:57;10.07;;;5.53;;
73575;SDS011;61859;49.204;8.140;2024-01-30T11:19:24;9.00;;;6.00;;
73575;SDS011;61859;49.204;8.140;2024-01-30T11:21:51;8.47;;;4.97;;
73575;SDS011;61859;49.204;8.140;2024-01-30T11:24:22;6.13;;;4.80;;
73575;SDS011;61859;49.204;8.140;2024-01-30T11:26:57;5.87;;;4.40;;
73575;SDS011;61859;49.204;8.140;2024-01-30T11:29:24;6.53;;;4.77;;
73575;SDS011;61859;49.204;8.140;2024-01-30T11:31:57;6.73;;;4.57;;
73575;SDS011;61859;49.204;8.140;2024-01-30T11:34:23;6.53;;;4.33;;
73575;SDS011;61859;49.204;8.140;2024-01-30T11:36:56;8.07;;;4.50;;
73575;SDS011;61859;49.204;8.140;2024-01-30T11:39:25;6.13;;;4.03;;
73575;SDS011;61859;49.204;8.140;2024-01-30T11:41:51;8.43;;;4.73;;
73575;SDS011;61859;49.204;8.140;2024-01-30T11:44:18;8.90;;;4.70;;
73575;SDS011;61859;49.204;8.140;2024-01-30T11:46:48;6.07;;;4.67;;
73575;SDS011;61859;49.204;8.140;2024-01-30T11:49:13;6.90;;;4.57;;
73575;SDS011;61859;49.204;8.140;2024-01-30T11:51:39;7.50;;;4.60;;
73575;SDS011;61859;49.204;8.140;2024-01-30T11:54:05;6.97;;;4.60;;
73575;SDS011;61859;49.204;8.140;2024-01-30T11:56:30;5.50;;;3.83;;
73575;SDS011;61859;49.204;8.140;2024-01-30T11:58:56;7.43;;;4.13;;
73575;SDS011;61859;49.204;8.140;2024-01-30T12:01:22;6.17;;;3.80;;
73575;SDS011;61859;49.204;8.140;2024-01-30T12:03:50;5.93;;;4.13;;
73575;SDS011;61859;49.204;8.140;2024-01-30T12:06:16;6.43;;;3.37;;
73575;SDS011;61859;49.204;8.140;2024-01-30T12:08:41;4.20;;;3.80;;
73575;SDS011;61859;49.204;8.140;2024-01-30T12:11:07;5.27;;;4.00;;
73575;SDS011;61859;49.204;8.140;2024-01-30T12:13:33;5.10;;;4.30;;
73575;SDS011;61859;49.204;8.140;2024-01-30T12:16:02;5.40;;;4.00;;
73575;SDS011;61859;49.204;8.140;2024-01-30T12:18:28;6.37;;;4.03;;
73575;SDS011;61859;49.204;8.140;2024-01-30T12:20:56;6.87;;;4.50;;
73575;SDS011;61859;49.204;8.140;2024-01-30T12:23:28;4.97;;;3.93;;
73575;SDS011;61859;49.204;8.140;2024-01-30T12:25:54;5.57;;;4.13;;
73575;SDS011;61859;49.204;8.140;2024-01-30T12:28:20;5.80;;;4.23;;
73575;SDS011;61859;49.204;8.140;2024-01-30T12:30:46;3.73;;;3.33;;
73575;SDS011;61859;49.204;8.140;2024-01-30T12:33:17;6.47;;;4.47;;
73575;SDS011;61859;49.204;8.140;2024-01-30T12:35:46;9.80;;;4.57;;
73575;SDS011;61859;49.204;8.140;2024-01-30T12:38:15;5.90;;;4.23;;
73575;SDS011;61859;49.204;8.140;2024-01-30T12:40:40;7.93;;;5.03;;
73575;SDS011;61859;49.204;8.140;2024-01-30T12:43:06;6.07;;;4.30;;
73575;SDS011;61859;49.204;8.140;2024-01-30T12:45:32;8.77;;;5.40;;
73575;SDS011;61859;49.204;8.140;2024-01-30T12:47:57;5.77;;;4.27;;
73575;SDS011;61859;49.204;8.140;2024-01-30T12:50:23;6.27;;;4.77;;
73575;SDS011;61859;49.204;8.140;2024-01-30T12:52:48;6.90;;;4.67;;
73575;SDS011;61859;49.204;8.140;2024-01-30T12:55:14;6.47;;;4.70;;
73575;SDS011;61859;49.204;8.140;2024-01-30T12:57:40;6.13;;;4.23;;
73575;SDS011;61859;49.204;8.140;2024-01-30T13:00:07;7.07;;;4.77;;
73575;SDS011;61859;49.204;8.140;2024-01-30T13:02:36;5.80;;;4.60;;
73575;SDS011;61859;49.204;8.140;2024-01-30T13:05:02;6.47;;;4.67;;
73575;SDS011;61859;49.204;8.140;2024-01-30T13:07:29;6.67;;;4.70;;
73575;SDS011;61859;49.204;8.140;2024-01-30T13:09:55;5.77;;;4.80;;
73575;SDS011;61859;49.204;8.140;2024-01-30T13:12:21;5.83;;;4.43;;
73575;SDS011;61859;49.204;8.140;2024-01-30T13:14:46;8.50;;;4.97;;
73575;SDS011;61859;49.204;8.140;2024-01-30T13:17:12;6.60;;;4.30;;
73575;SDS011;61859;49.204;8.140;2024-01-30T13:19:38;7.40;;;4.70;;
73575;SDS011;61859;49.204;8.140;2024-01-30T13:22:03;8.20;;;4.93;;
73575;SDS011;61859;49.204;8.140;2024-01-30T13:24:29;8.27;;;5.03;;
73575;SDS011;61859;49.204;8.140;2024-01-30T13:26:54;6.30;;;4.70;;
73575;SDS011;61859;49.204;8.140;2024-01-30T13:29:20;6.90;;;5.10;;
73575;SDS011;61859;49.204;8.140;2024-01-30T13:31:45;7.63;;;4.93;;
73575;SDS011;61859;49.204;8.140;2024-01-30T13:34:11;6.23;;;4.97;;
73575;SDS011;61859;49.204;8.140;2024-01-30T13:36:38;7.63;;;4.80;;
73575;SDS011;61859;49.204;8.140;2024-01-30T13:39:04;6.50;;;5.10;;
73575;SDS011;61859;49.204;8.140;2024-01-30T13:41:35;6.30;;;5.17;;
73575;SDS011;61859;49.204;8.140;2024-01-30T13:44:01;6.73;;;4.50;;
73575;SDS011;61859;49.204;8.140;2024-01-30T13:46:28;7.20;;;5.30;;
73575;SDS011;61859;49.204;8.140;2024-01-30T13:48:54;6.23;;;4.70;;
73575;SDS011;61859;49.204;8.140;2024-01-30T13:51:20;7.43;;;5.20;;
73575;SDS011;61859;49.204;8.140;2024-01-30T13:53:45;8.00;;;5.37;;
73575;SDS011;61859;49.204;8.140;2024-01-30T13:56:11;6.70;;;4.80;;
73575;SDS011;61859;49.204;8.140;2024-01-30T13:58:36;9.50;;;5.27;;
73575;SDS011;61859;49.204;8.140;2024-01-30T14:01:02;5.40;;;4.43;;
73575;SDS011;61859;49.204;8.140;2024-01-30T14:03:28;8.13;;;5.67;;
73575;SDS011;61859;49.204;8.140;2024-01-30T14:05:53;7.07;;;5.50;;
73575;SDS011;61859;49.204;8.140;2024-01-30T14:08:19;7.03;;;4.90;;
73575;SDS011;61859;49.204;8.140;2024-01-30T14:10:48;7.13;;;5.37;;
73575;SDS011;61859;49.204;8.140;2024-01-30T14:13:14;9.17;;;5.93;;
73575;SDS011;61859;49.204;8.140;2024-01-30T14:15:39;10.23;;;5.33;;
73575;SDS011;61859;49.204;8.140;2024-01-30T14:18:05;8.37;;;5.67;;
73575;SDS011;61859;49.204;8.140;2024-01-30T14:20:33;7.93;;;5.03;;
73575;SDS011;61859;49.204;8.140;2024-01-30T14:22:58;5.43;;;4.70;;
73575;SDS011;61859;49.204;8.140;2024-01-30T14:25:24;6.23;;;5.33;;
73575;SDS011;61859;49.204;8.140;2024-01-30T14:27:50;8.20;;;5.47;;